createdAt,value
2017-09-03T00:00:30.392Z,93.40
2017-09-03T00:02:58.086Z,93.00
2017-09-03T00:05:25.758Z,92.70
2017-09-03T00:07:53.391Z,92.60
2017-09-03T00:10:21.074Z,92.80
2017-09-03T00:12:48.705Z,92.50
2017-09-03T00:15:16.406Z,92.70
2017-09-03T00:17:44.153Z,92.50
2017-09-03T00:20:11.797Z,92.60
2017-09-03T00:22:39.545Z,92.50
2017-09-03T00:25:07.292Z,92.40
2017-09-03T00:27:34.922Z,92.20
2017-09-03T00:30:02.558Z,92.00
2017-09-03T00:32:30.246Z,92.40
2017-09-03T00:34:57.979Z,91.90
2017-09-03T00:37:25.725Z,91.60
2017-09-03T00:39:53.472Z,92.00
2017-09-03T00:42:21.218Z,91.70
2017-09-03T00:44:48.966Z,91.90
2017-09-03T00:47:16.669Z,91.80
2017-09-03T00:49:44.357Z,91.80
2017-09-03T00:52:12.018Z,91.80
2017-09-03T00:54:39.734Z,91.30
2017-09-03T00:57:07.393Z,91.40
2017-09-03T00:59:35.141Z,92.10
2017-09-03T01:02:02.837Z,91.80
2017-09-03T01:04:30.534Z,91.40
2017-09-03T01:06:58.216Z,91.00
2017-09-03T01:09:26.030Z,91.10
2017-09-03T01:11:53.777Z,91.10
2017-09-03T01:14:21.458Z,91.30
2017-09-03T01:16:49.218Z,91.20
2017-09-03T01:19:16.945Z,91.10
2017-09-03T01:21:44.974Z,91.20
2017-09-03T01:24:12.681Z,91.30
2017-09-03T01:26:40.315Z,91.10
2017-09-03T01:29:07.972Z,91.40
2017-09-03T01:31:35.755Z,91.30
2017-09-03T01:34:03.398Z,91.70
2017-09-03T01:36:31.051Z,90.70
2017-09-03T01:38:58.977Z,90.80
2017-09-03T01:41:26.619Z,90.90
2017-09-03T01:43:54.265Z,91.00
2017-09-03T01:46:21.962Z,90.50
2017-09-03T01:48:49.681Z,90.70
2017-09-03T01:51:17.427Z,90.90
2017-09-03T01:53:45.193Z,91.30
2017-09-03T01:56:12.866Z,91.40
2017-09-03T01:58:40.566Z,91.30
2017-09-03T02:01:08.313Z,91.20
2017-09-03T02:03:35.957Z,91.30
2017-09-03T02:06:03.589Z,90.90
2017-09-03T02:08:31.269Z,91.40
2017-09-03T02:10:58.910Z,91.30
2017-09-03T02:13:26.643Z,91.40
2017-09-03T02:15:54.317Z,91.40
2017-09-03T02:18:21.956Z,91.40
2017-09-03T02:20:49.622Z,91.90
2017-09-03T02:23:17.323Z,91.90
2017-09-03T02:25:44.968Z,91.90
2017-09-03T02:28:12.607Z,91.70
2017-09-03T02:30:40.296Z,91.60
2017-09-03T02:33:07.948Z,91.40
2017-09-03T02:35:35.650Z,91.40
2017-09-03T02:38:03.334Z,91.30
2017-09-03T02:40:30.966Z,91.50
2017-09-03T02:42:58.686Z,91.60
2017-09-03T02:45:26.378Z,91.80
2017-09-03T02:47:54.044Z,91.70
2017-09-03T02:50:21.681Z,91.70
2017-09-03T02:52:49.462Z,91.70
2017-09-03T02:55:17.221Z,92.00
2017-09-03T02:57:44.967Z,92.10
2017-09-03T03:00:12.715Z,92.00
2017-09-03T03:02:40.357Z,91.80
2017-09-03T03:05:08.107Z,91.40
2017-09-03T03:07:35.811Z,91.40
2017-09-03T03:10:03.603Z,91.50
2017-09-03T03:12:31.239Z,91.40
2017-09-03T03:14:58.992Z,91.10
2017-09-03T03:17:26.621Z,91.20
2017-09-03T03:19:54.285Z,90.70
2017-09-03T03:22:22.123Z,91.10
2017-09-03T03:24:49.794Z,91.00
2017-09-03T03:27:17.526Z,91.20
2017-09-03T03:29:45.484Z,91.40
2017-09-03T03:32:13.126Z,91.70
2017-09-03T03:34:40.774Z,91.70
2017-09-03T03:37:08.470Z,92.30
2017-09-03T03:39:36.161Z,92.30
2017-09-03T03:42:03.913Z,92.50
2017-09-03T03:44:31.614Z,92.10
2017-09-03T03:46:59.280Z,92.20
2017-09-03T03:49:26.931Z,91.90
2017-09-03T03:51:54.694Z,92.10
2017-09-03T03:54:22.341Z,92.30
2017-09-03T03:56:49.990Z,92.40
2017-09-03T03:59:17.833Z,92.30
2017-09-03T04:01:45.478Z,91.90
2017-09-03T04:04:13.224Z,91.80
2017-09-03T04:06:40.946Z,91.90
2017-09-03T04:09:08.593Z,92.70
2017-09-03T04:11:36.262Z,92.40
2017-09-03T04:14:04.111Z,92.20
2017-09-03T04:16:31.754Z,92.40
2017-09-03T04:18:59.411Z,92.40
2017-09-03T04:21:27.110Z,92.40
2017-09-03T04:23:54.796Z,92.50
2017-09-03T04:26:22.543Z,92.40
2017-09-03T04:28:50.346Z,92.60
2017-09-03T04:31:18.037Z,92.60
2017-09-03T04:33:45.784Z,92.30
2017-09-03T04:36:13.501Z,92.30
2017-09-03T04:38:41.175Z,92.40
2017-09-03T04:41:08.819Z,92.10
2017-09-03T04:43:36.530Z,92.40
2017-09-03T04:46:04.181Z,92.20
2017-09-03T04:48:31.857Z,92.60
2017-09-03T04:50:59.559Z,92.40
2017-09-03T04:53:27.252Z,92.30
2017-09-03T04:55:54.999Z,92.20
2017-09-03T04:58:22.794Z,92.20
2017-09-03T05:00:50.429Z,92.50
2017-09-03T05:03:18.069Z,92.30
2017-09-03T05:05:45.866Z,92.20
2017-09-03T05:08:13.501Z,92.60
2017-09-03T05:10:41.138Z,92.40
2017-09-03T05:13:08.922Z,92.40
2017-09-03T05:15:36.669Z,92.40
2017-09-03T05:18:04.416Z,92.40
2017-09-03T05:20:32.162Z,92.30
2017-09-03T05:22:59.911Z,92.40
2017-09-03T05:25:27.562Z,92.10
2017-09-03T05:27:55.336Z,92.30
2017-09-03T05:30:23.053Z,92.40
2017-09-03T05:32:50.800Z,91.90
2017-09-03T05:35:18.546Z,91.80
2017-09-03T05:37:46.198Z,91.90
2017-09-03T05:40:13.936Z,91.70
2017-09-03T05:42:41.691Z,91.90
2017-09-03T05:45:09.322Z,91.80
2017-09-03T05:47:36.982Z,92.10
2017-09-03T05:50:04.722Z,91.80
2017-09-03T05:52:32.370Z,91.20
2017-09-03T05:55:00.014Z,91.30
2017-09-03T05:57:27.864Z,91.50
2017-09-03T05:59:55.612Z,91.30
2017-09-03T06:02:23.262Z,91.70
2017-09-03T06:04:51.002Z,91.50
2017-09-03T06:07:18.663Z,91.10
2017-09-03T06:09:46.343Z,91.50
2017-09-03T06:12:14.160Z,91.00
2017-09-03T06:14:41.822Z,90.50
2017-09-03T06:17:09.486Z,90.60
2017-09-03T06:19:37.234Z,90.40
2017-09-03T06:22:04.926Z,90.00
2017-09-03T06:24:32.574Z,89.90
2017-09-03T06:27:00.274Z,89.60
2017-09-03T06:29:28.092Z,89.80
2017-09-03T06:31:55.815Z,89.00
2017-09-03T06:34:23.573Z,88.90
2017-09-03T06:36:51.238Z,88.60
2017-09-03T06:39:18.875Z,88.40
2017-09-03T06:41:46.674Z,88.70
2017-09-03T06:44:14.323Z,87.90
2017-09-03T06:46:41.961Z,87.70
2017-09-03T06:49:09.740Z,87.00
2017-09-03T06:51:37.485Z,87.20
2017-09-03T06:54:05.233Z,87.60
2017-09-03T06:56:32.940Z,87.60
2017-09-03T06:59:00.727Z,87.00
2017-09-03T07:01:28.367Z,86.60
2017-09-03T07:03:56.053Z,86.30
2017-09-03T07:06:23.694Z,87.50
2017-09-03T07:08:51.411Z,87.30
2017-09-03T07:11:19.160Z,87.60
2017-09-03T07:13:46.793Z,86.00
2017-09-03T07:16:14.447Z,85.80
2017-09-03T07:18:42.195Z,84.70
2017-09-03T07:21:09.843Z,85.10
2017-09-03T07:23:37.586Z,85.00
2017-09-03T07:26:05.436Z,85.00
2017-09-03T07:28:33.182Z,85.10
2017-09-03T07:31:00.827Z,84.20
2017-09-03T07:33:28.518Z,84.60
2017-09-03T07:35:56.158Z,83.50
2017-09-03T07:38:23.889Z,84.40
2017-09-03T07:40:51.716Z,84.40
2017-09-03T07:43:19.465Z,84.30
2017-09-03T07:45:47.146Z,83.60
2017-09-03T07:48:14.960Z,82.80
2017-09-03T07:50:42.705Z,82.00
2017-09-03T07:53:10.452Z,82.30
2017-09-03T07:55:38.309Z,82.90
2017-09-03T07:58:05.955Z,81.90
2017-09-03T08:00:34.513Z,80.90
2017-09-03T08:03:02.221Z,82.10
2017-09-03T08:05:29.866Z,82.70
2017-09-03T08:07:57.669Z,83.20
2017-09-03T08:10:25.402Z,81.70
2017-09-03T08:12:53.042Z,81.20
2017-09-03T08:15:20.692Z,82.50
2017-09-03T08:17:48.374Z,82.30
2017-09-03T08:20:16.014Z,82.40
2017-09-03T08:22:43.641Z,82.00
2017-09-03T08:25:11.374Z,81.30
2017-09-03T08:27:39.120Z,79.10
2017-09-03T08:30:06.860Z,79.70
2017-09-03T08:32:34.680Z,80.40
2017-09-03T08:35:02.466Z,82.00
2017-09-03T08:37:30.115Z,81.60
2017-09-03T08:39:57.860Z,81.20
2017-09-03T08:42:25.498Z,81.20
2017-09-03T08:44:53.498Z,80.30
2017-09-03T08:47:21.518Z,79.80
2017-09-03T08:49:49.164Z,80.00
2017-09-03T08:52:17.242Z,79.20
2017-09-03T08:54:45.082Z,78.00
2017-09-03T08:57:12.723Z,79.40
2017-09-03T08:59:40.359Z,77.50
2017-09-03T09:02:08.071Z,78.00
2017-09-03T09:04:35.739Z,76.60
2017-09-03T09:07:03.428Z,75.60
2017-09-03T09:09:31.237Z,76.90
2017-09-03T09:11:58.981Z,76.50
2017-09-03T09:14:26.631Z,76.40
2017-09-03T09:16:54.771Z,75.90
2017-09-03T09:19:22.655Z,76.00
2017-09-03T09:21:50.440Z,75.00
2017-09-03T09:24:18.300Z,76.50
2017-09-03T09:26:46.054Z,75.90
2017-09-03T09:29:13.849Z,74.70
2017-09-03T09:31:41.705Z,74.50
2017-09-03T09:34:09.425Z,74.30
2017-09-03T09:36:37.064Z,75.50
2017-09-03T09:39:04.919Z,76.20
2017-09-03T09:41:32.566Z,77.20
2017-09-03T09:44:00.195Z,73.50
2017-09-03T09:46:27.926Z,74.60
2017-09-03T09:48:55.642Z,71.00
2017-09-03T09:51:23.334Z,71.80
2017-09-03T09:53:51.065Z,72.70
2017-09-03T09:56:27.502Z,69.00
2017-09-03T09:58:55.278Z,71.60
2017-09-03T10:01:22.911Z,71.70
2017-09-03T10:03:50.586Z,74.00
2017-09-03T10:06:18.273Z,72.40
2017-09-03T10:08:45.907Z,71.70
2017-09-03T10:11:13.547Z,72.50
2017-09-03T10:13:41.267Z,74.70
2017-09-03T10:16:08.902Z,72.80
2017-09-03T10:18:36.590Z,70.10
2017-09-03T10:21:04.303Z,69.30
2017-09-03T10:23:31.948Z,70.20
2017-09-03T10:25:59.586Z,67.50
2017-09-03T10:28:27.278Z,68.50
2017-09-03T10:30:54.914Z,69.10
2017-09-03T10:33:22.551Z,66.00
2017-09-03T10:35:50.278Z,68.20
2017-09-03T10:38:17.927Z,68.30
2017-09-03T10:40:45.669Z,68.60
2017-09-03T10:43:13.519Z,66.60
2017-09-03T10:45:41.163Z,64.80
2017-09-03T10:48:08.824Z,64.10
2017-09-03T10:50:36.658Z,65.70
2017-09-03T10:53:04.306Z,67.20
2017-09-03T10:55:32.051Z,65.60
2017-09-03T10:57:59.900Z,65.30
2017-09-03T11:00:27.554Z,65.20
2017-09-03T11:02:55.199Z,65.50
2017-09-03T11:05:22.895Z,65.30
2017-09-03T11:07:50.584Z,66.20
2017-09-03T11:10:18.228Z,68.20
2017-09-03T11:12:45.926Z,74.30
2017-09-03T11:15:13.576Z,74.40
2017-09-03T11:17:41.218Z,72.10
2017-09-03T11:20:09.003Z,71.50
2017-09-03T11:22:36.656Z,72.50
2017-09-03T11:25:04.411Z,71.10
2017-09-03T11:27:32.152Z,71.40
2017-09-03T11:29:59.830Z,72.30
2017-09-03T11:32:27.546Z,71.90
2017-09-03T11:34:55.293Z,70.70
2017-09-03T11:37:22.949Z,70.70
2017-09-03T11:39:50.587Z,71.10
2017-09-03T11:42:18.278Z,68.30
2017-09-03T11:44:45.935Z,66.00
2017-09-03T11:47:13.620Z,68.20
2017-09-03T11:49:41.315Z,67.40
2017-09-03T11:52:09.011Z,66.70
2017-09-03T11:54:36.766Z,67.00
2017-09-03T11:57:04.508Z,67.40
2017-09-03T11:59:32.149Z,68.50
2017-09-03T12:01:59.832Z,69.70
2017-09-03T12:04:27.648Z,70.80
2017-09-03T12:06:55.757Z,71.40
2017-09-03T12:09:23.450Z,74.00
2017-09-03T12:11:51.230Z,75.50
2017-09-03T12:14:18.944Z,76.90
2017-09-03T12:16:46.588Z,79.10
2017-09-03T12:19:14.313Z,78.70
2017-09-03T12:21:41.950Z,77.80
2017-09-03T12:24:09.621Z,77.40
2017-09-03T12:26:37.320Z,75.70
2017-09-03T12:29:04.962Z,77.60
2017-09-03T12:31:32.710Z,78.50
2017-09-03T12:34:00.418Z,74.60
2017-09-03T12:36:28.161Z,74.10
2017-09-03T12:38:55.803Z,73.50
2017-09-03T12:41:23.551Z,73.40
2017-09-03T12:43:51.199Z,75.40
2017-09-03T12:46:18.841Z,74.60
2017-09-03T12:48:46.601Z,73.80
2017-09-03T12:51:14.243Z,74.80
2017-09-03T12:53:41.878Z,76.60
2017-09-03T12:56:09.726Z,76.40
2017-09-03T12:58:37.376Z,77.50
2017-09-03T13:01:05.033Z,76.20
2017-09-03T13:03:32.866Z,76.80
2017-09-03T13:06:00.509Z,76.00
2017-09-03T13:08:29.179Z,77.30
2017-09-03T13:10:56.962Z,74.60
2017-09-03T13:13:24.705Z,73.60
2017-09-03T13:15:52.422Z,72.30
2017-09-03T13:18:20.273Z,72.10
2017-09-03T13:20:47.919Z,71.50
2017-09-03T13:23:15.665Z,69.40
2017-09-03T13:25:43.513Z,71.20
2017-09-03T13:28:11.167Z,70.60
2017-09-03T13:30:39.317Z,70.30
2017-09-03T13:33:07.062Z,69.70
2017-09-03T13:35:34.715Z,69.00
2017-09-03T13:38:02.358Z,69.60
2017-09-03T13:40:30.047Z,70.70
2017-09-03T13:42:57.747Z,70.30
2017-09-03T13:45:25.394Z,70.30
2017-09-03T13:47:53.507Z,65.50
2017-09-03T13:50:21.193Z,68.50
2017-09-03T13:52:48.940Z,69.20
2017-09-03T13:55:16.791Z,69.00
2017-09-03T13:57:44.537Z,67.40
2017-09-03T14:00:12.284Z,67.00
2017-09-03T14:02:40.096Z,67.00
2017-09-03T14:05:07.731Z,64.80
2017-09-03T14:07:35.361Z,67.40
2017-09-03T14:10:03.170Z,65.60
2017-09-03T14:12:30.837Z,65.00
2017-09-03T14:14:58.469Z,63.10
2017-09-03T14:17:26.210Z,64.40
2017-09-03T14:19:53.854Z,64.00
2017-09-03T14:22:21.602Z,65.20
2017-09-03T14:24:49.349Z,64.50
2017-09-03T14:27:16.986Z,61.80
2017-09-03T14:29:44.630Z,63.70
2017-09-03T14:32:12.488Z,63.50
2017-09-03T14:34:40.134Z,62.70
2017-09-03T14:37:07.879Z,63.80
2017-09-03T14:39:35.565Z,64.20
2017-09-03T14:42:03.207Z,65.60
2017-09-03T14:44:30.850Z,69.60
2017-09-03T14:46:58.534Z,70.30
2017-09-03T14:49:26.209Z,70.30
2017-09-03T14:51:53.854Z,71.00
2017-09-03T14:54:21.558Z,71.10
2017-09-03T14:56:49.246Z,69.30
2017-09-03T14:59:16.891Z,71.80
2017-09-03T15:01:44.646Z,71.90
2017-09-03T15:04:12.282Z,72.50
2017-09-03T15:06:40.032Z,72.50
2017-09-03T15:09:07.835Z,71.10
2017-09-03T15:11:35.513Z,71.40
2017-09-03T15:14:03.171Z,70.80
2017-09-03T15:16:30.857Z,70.60
2017-09-03T15:18:58.493Z,71.60
2017-09-03T15:21:26.209Z,71.30
2017-09-03T15:23:53.934Z,70.50
2017-09-03T15:26:21.569Z,70.90
2017-09-03T15:28:49.245Z,71.50
2017-09-03T15:31:17.504Z,73.00
2017-09-03T15:33:45.251Z,72.90
2017-09-03T15:36:12.909Z,72.90
2017-09-03T15:38:40.598Z,72.40
2017-09-03T15:41:08.287Z,71.90
2017-09-03T15:43:35.932Z,72.60
2017-09-03T15:46:03.630Z,72.90
2017-09-03T15:48:31.324Z,72.50
2017-09-03T15:50:59.481Z,73.50
2017-09-03T15:53:27.178Z,72.90
2017-09-03T15:55:54.884Z,72.40
2017-09-03T15:58:22.623Z,71.60
2017-09-03T16:00:50.370Z,71.90
2017-09-03T16:03:17.997Z,71.70
2017-09-03T16:05:45.633Z,71.50
2017-09-03T16:08:13.508Z,72.50
2017-09-03T16:10:41.140Z,75.00
2017-09-03T16:13:08.798Z,74.60
2017-09-03T16:15:36.546Z,74.50
2017-09-03T16:18:04.299Z,74.50
2017-09-03T16:20:32.040Z,75.30
2017-09-03T16:22:59.810Z,74.90
2017-09-03T16:25:27.449Z,74.40
2017-09-03T16:27:55.087Z,75.20
2017-09-03T16:30:22.828Z,74.30
2017-09-03T16:32:50.470Z,74.20
2017-09-03T16:35:18.218Z,73.70
2017-09-03T16:37:45.903Z,74.10
2017-09-03T16:40:13.544Z,74.90
2017-09-03T16:42:41.183Z,75.30
2017-09-03T16:45:08.973Z,76.20
2017-09-03T16:47:36.669Z,77.00
2017-09-03T16:50:04.396Z,76.90
2017-09-03T16:52:32.147Z,76.90
2017-09-03T16:54:59.991Z,77.40
2017-09-03T16:57:27.669Z,78.00
2017-09-03T16:59:55.423Z,78.20
2017-09-03T17:02:23.114Z,79.00
2017-09-03T17:04:50.794Z,78.50
2017-09-03T17:07:18.613Z,79.10
2017-09-03T17:09:46.375Z,79.10
2017-09-03T17:12:14.062Z,79.60
2017-09-03T17:14:41.812Z,79.20
2017-09-03T17:17:09.490Z,78.70
2017-09-03T17:19:37.218Z,78.40
2017-09-03T17:22:06.833Z,78.60
2017-09-03T17:24:34.545Z,79.00
2017-09-03T17:27:02.242Z,79.80
2017-09-03T17:29:29.982Z,80.00
2017-09-03T17:31:57.666Z,80.30
2017-09-03T17:34:26.308Z,80.30
2017-09-03T17:36:54.834Z,81.10
2017-09-03T17:39:22.509Z,81.20
2017-09-03T17:41:53.114Z,81.80
2017-09-03T17:44:20.858Z,81.50
2017-09-03T17:46:49.053Z,81.40
2017-09-03T17:49:16.742Z,81.30
2017-09-03T17:51:44.473Z,81.40
2017-09-03T17:54:12.171Z,81.70
2017-09-03T17:56:39.922Z,82.20
2017-09-03T17:59:07.771Z,82.60
2017-09-03T18:01:35.462Z,82.50
2017-09-03T18:04:03.171Z,82.20
2017-09-03T18:06:30.915Z,82.30
2017-09-03T18:08:58.604Z,82.50
2017-09-03T18:11:26.305Z,82.50
2017-09-03T18:13:54.115Z,82.30
2017-09-03T18:16:21.810Z,82.70
2017-09-03T18:18:49.500Z,82.50
2017-09-03T18:21:17.398Z,82.80
2017-09-03T18:23:45.093Z,82.60
2017-09-03T18:26:12.788Z,82.50
2017-09-03T18:28:41.457Z,82.40
2017-09-03T18:31:09.720Z,82.70
2017-09-03T18:33:37.463Z,83.60
2017-09-03T18:36:16.066Z,83.50
2017-09-03T18:38:58.657Z,83.60
2017-09-03T18:41:30.118Z,83.50
2017-09-03T18:46:57.593Z,83.00
2017-09-03T18:49:25.288Z,83.40
2017-09-03T18:51:53.641Z,83.50
2017-09-03T18:54:22.324Z,84.30
2017-09-03T18:56:50.019Z,84.30
2017-09-03T18:59:21.310Z,84.70
2017-09-03T19:01:49.647Z,84.70
2017-09-03T19:04:17.394Z,85.50
2017-09-03T19:06:45.244Z,85.80
2017-09-03T19:09:13.047Z,85.30
2017-09-03T19:11:40.738Z,85.10
2017-09-03T19:14:08.423Z,85.00
2017-09-03T19:16:36.683Z,85.00
2017-09-03T19:19:04.387Z,85.00
2017-09-03T19:21:32.102Z,85.50
2017-09-03T19:23:59.874Z,85.60
2017-09-03T19:26:27.690Z,85.90
2017-09-03T19:28:55.423Z,86.30
2017-09-03T19:31:23.174Z,86.40
2017-09-03T19:33:50.894Z,86.40
2017-09-03T19:36:18.593Z,86.10
2017-09-03T19:38:46.347Z,85.80
2017-09-03T19:41:14.107Z,85.20
2017-09-03T19:43:41.864Z,84.80
2017-09-03T19:46:09.546Z,84.70
2017-09-03T19:48:37.190Z,84.30
2017-09-03T19:51:04.829Z,85.00
2017-09-03T19:53:32.510Z,84.80
2017-09-03T19:56:00.151Z,84.80
2017-09-03T19:58:27.808Z,84.80
2017-09-03T20:00:55.584Z,84.80
2017-09-03T20:03:23.227Z,85.20
2017-09-03T20:05:50.874Z,85.40
2017-09-03T20:08:18.622Z,85.30
2017-09-03T20:10:46.275Z,84.70
2017-09-03T20:13:13.917Z,84.00
2017-09-03T20:15:41.618Z,83.80
2017-09-03T20:18:09.254Z,83.70
2017-09-03T20:20:36.962Z,84.00
2017-09-03T20:23:04.655Z,84.20
2017-09-03T20:25:32.301Z,84.90
2017-09-03T20:27:59.985Z,84.90
2017-09-03T20:30:27.681Z,85.40
2017-09-03T20:32:55.688Z,85.40
2017-09-03T20:35:23.318Z,85.60
2017-09-03T20:37:51.079Z,85.90
2017-09-03T20:40:18.774Z,86.40
2017-09-03T20:42:46.442Z,86.70
2017-09-03T20:45:14.136Z,86.30
2017-09-03T20:47:41.810Z,85.70
2017-09-03T20:50:09.458Z,85.40
2017-09-03T20:52:37.174Z,86.10
2017-09-03T20:55:04.824Z,86.40
2017-09-03T20:57:32.545Z,86.20
2017-09-03T21:00:00.351Z,86.40
2017-09-03T21:02:28.042Z,86.00
2017-09-03T21:04:55.737Z,85.80
2017-09-03T21:07:23.481Z,86.10
2017-09-03T21:09:51.179Z,86.60
2017-09-03T21:12:18.823Z,86.80
2017-09-03T21:14:46.633Z,86.60
2017-09-03T21:17:14.274Z,86.30
2017-09-03T21:19:41.920Z,85.70
2017-09-03T21:22:09.710Z,85.80
2017-09-03T21:24:37.342Z,85.40
2017-09-03T21:27:05.002Z,85.20
2017-09-03T21:29:32.749Z,85.50
2017-09-03T21:32:00.494Z,85.30
2017-09-03T21:34:28.161Z,84.80
2017-09-03T21:36:55.855Z,84.60
2017-09-03T21:39:23.533Z,84.40
2017-09-03T21:41:51.177Z,84.40
2017-09-03T21:44:18.855Z,84.60
2017-09-03T21:46:46.569Z,85.10
2017-09-03T21:49:14.214Z,84.80
2017-09-03T21:51:42.001Z,84.60
2017-09-03T21:54:09.709Z,84.00
2017-09-03T21:56:37.342Z,84.10
2017-09-03T21:59:05.071Z,83.70
2017-09-03T22:01:32.745Z,84.00
2017-09-03T22:04:00.493Z,84.20
2017-09-03T22:06:28.238Z,84.10
2017-09-03T22:08:55.887Z,84.00
2017-09-03T22:11:23.519Z,84.40
2017-09-03T22:13:51.280Z,84.30
2017-09-03T22:16:18.933Z,83.90
2017-09-03T22:18:46.573Z,84.00
2017-09-03T22:21:14.253Z,84.80
2017-09-03T22:23:41.890Z,85.30
2017-09-03T22:26:09.517Z,85.40
2017-09-03T22:28:37.253Z,85.40
2017-09-03T22:31:04.885Z,85.70
2017-09-03T22:33:32.512Z,85.50
2017-09-03T22:36:00.194Z,85.40
2017-09-03T22:38:27.832Z,85.30
2017-09-03T22:40:55.461Z,85.20
2017-09-03T22:43:23.224Z,85.20
2017-09-03T22:45:50.978Z,84.90
2017-09-03T22:48:18.634Z,85.00
2017-09-03T22:50:46.425Z,85.30
2017-09-03T22:53:14.053Z,85.20
2017-09-03T22:55:41.755Z,85.10
2017-09-03T22:58:09.458Z,84.90
2017-09-03T23:00:37.146Z,84.90
2017-09-03T23:03:04.894Z,85.10
2017-09-03T23:05:32.642Z,85.40
2017-09-03T23:08:00.388Z,85.50
2017-09-03T23:10:28.136Z,85.30
2017-09-03T23:12:55.824Z,85.50
2017-09-03T23:15:23.461Z,85.70
2017-09-03T23:17:51.176Z,85.90
2017-09-03T23:20:18.869Z,85.90
2017-09-03T23:22:46.497Z,85.70
2017-09-03T23:25:14.122Z,85.80
2017-09-03T23:27:41.856Z,86.00
2017-09-03T23:30:09.506Z,85.90
2017-09-03T23:32:37.145Z,86.10
2017-09-03T23:35:04.892Z,86.20
2017-09-03T23:37:32.537Z,86.10
2017-09-03T23:40:00.285Z,86.10
2017-09-03T23:42:27.987Z,86.40
2017-09-03T23:44:55.630Z,86.50
2017-09-03T23:47:23.267Z,86.50
2017-09-03T23:49:51.071Z,86.60
2017-09-03T23:52:18.716Z,86.50
2017-09-03T23:54:46.350Z,86.10
2017-09-03T23:57:14.033Z,85.50
2017-09-03T23:59:41.754Z,85.50
